sensor_id;sensor_type;location;lat;lon;timestamp;P1;durP1;ratioP1;P2;durP2;ratioP2
77417;SDS011;66490;51.484;0.026;2023-03-14T00:00:39;26.40;;;3.58;;
77417;SDS011;66490;51.484;0.026;2023-03-14T00:03:04;23.23;;;3.93;;
77417;SDS011;66490;51.484;0.026;2023-03-14T00:05:30;15.90;;;3.53;;
77417;SDS011;66490;51.484;0.026;2023-03-14T00:07:55;27.73;;;4.57;;
77417;SDS011;66490;51.484;0.026;2023-03-14T00:10:20;20.53;;;5.03;;
77417;SDS011;66490;51.484;0.026;2023-03-14T00:12:46;16.67;;;4.40;;
77417;SDS011;66490;51.484;0.026;2023-03-14T00:15:12;24.37;;;3.60;;
77417;SDS011;66490;51.484;0.026;2023-03-14T00:17:42;23.80;;;4.53;;
77417;SDS011;66490;51.484;0.026;2023-03-14T00:20:07;26.67;;;5.45;;
77417;SDS011;66490;51.484;0.026;2023-03-14T00:22:34;20.35;;;3.55;;
77417;SDS011;66490;51.484;0.026;2023-03-14T00:24:59;15.07;;;3.10;;
77417;SDS011;66490;51.484;0.026;2023-03-14T00:27:24;23.35;;;4.57;;
77417;SDS011;66490;51.484;0.026;2023-03-14T00:29:50;25.13;;;3.97;;
77417;SDS011;66490;51.484;0.026;2023-03-14T00:32:16;21.30;;;3.73;;
77417;SDS011;66490;51.484;0.026;2023-03-14T00:34:41;24.37;;;3.63;;
77417;SDS011;66490;51.484;0.026;2023-03-14T00:37:06;23.50;;;3.67;;
77417;SDS011;66490;51.484;0.026;2023-03-14T00:39:33;23.80;;;5.47;;
77417;SDS011;66490;51.484;0.026;2023-03-14T00:41:58;19.30;;;3.03;;
77417;SDS011;66490;51.484;0.026;2023-03-14T00:44:24;21.10;;;3.47;;
77417;SDS011;66490;51.484;0.026;2023-03-14T00:46:49;23.02;;;3.67;;
77417;SDS011;66490;51.484;0.026;2023-03-14T00:49:15;25.03;;;3.87;;
77417;SDS011;66490;51.484;0.026;2023-03-14T00:51:40;19.73;;;2.40;;
77417;SDS011;66490;51.484;0.026;2023-03-14T00:54:06;20.00;;;2.50;;
77417;SDS011;66490;51.484;0.026;2023-03-14T00:56:31;12.87;;;2.57;;
77417;SDS011;66490;51.484;0.026;2023-03-14T00:58:56;28.63;;;3.08;;
77417;SDS011;66490;51.484;0.026;2023-03-14T01:01:22;19.03;;;1.97;;
77417;SDS011;66490;51.484;0.026;2023-03-14T01:03:51;20.20;;;2.50;;
77417;SDS011;66490;51.484;0.026;2023-03-14T01:06:18;15.57;;;2.03;;
77417;SDS011;66490;51.484;0.026;2023-03-14T01:08:44;15.77;;;3.05;;
77417;SDS011;66490;51.484;0.026;2023-03-14T01:11:10;19.50;;;2.67;;
77417;SDS011;66490;51.484;0.026;2023-03-14T01:13:37;14.48;;;2.45;;
77417;SDS011;66490;51.484;0.026;2023-03-14T01:16:03;15.90;;;2.55;;
77417;SDS011;66490;51.484;0.026;2023-03-14T01:18:30;19.73;;;3.53;;
77417;SDS011;66490;51.484;0.026;2023-03-14T01:20:56;11.20;;;1.97;;
77417;SDS011;66490;51.484;0.026;2023-03-14T01:23:22;19.80;;;3.55;;
77417;SDS011;66490;51.484;0.026;2023-03-14T01:25:47;7.97;;;1.17;;
77417;SDS011;66490;51.484;0.026;2023-03-14T01:28:12;4.97;;;1.40;;
77417;SDS011;66490;51.484;0.026;2023-03-14T01:30:38;5.67;;;1.50;;
77417;SDS011;66490;51.484;0.026;2023-03-14T01:33:03;3.05;;;1.05;;
77417;SDS011;66490;51.484;0.026;2023-03-14T01:35:49;3.53;;;1.10;;
77417;SDS011;66490;51.484;0.026;2023-03-14T01:38:33;4.20;;;1.08;;
77417;SDS011;66490;51.484;0.026;2023-03-14T01:41:19;4.03;;;1.45;;
77417;SDS011;66490;51.484;0.026;2023-03-14T01:44:03;2.42;;;1.27;;
77417;SDS011;66490;51.484;0.026;2023-03-14T01:46:47;2.55;;;1.05;;
77417;SDS011;66490;51.484;0.026;2023-03-14T01:49:34;2.57;;;1.20;;
77417;SDS011;66490;51.484;0.026;2023-03-14T01:52:23;2.47;;;1.17;;
77417;SDS011;66490;51.484;0.026;2023-03-14T01:55:17;3.13;;;1.40;;
77417;SDS011;66490;51.484;0.026;2023-03-14T01:58:03;2.88;;;1.60;;
77417;SDS011;66490;51.484;0.026;2023-03-14T02:00:48;3.25;;;1.65;;
77417;SDS011;66490;51.484;0.026;2023-03-14T02:03:34;3.73;;;1.30;;
77417;SDS011;66490;51.484;0.026;2023-03-14T02:06:21;5.53;;;1.63;;
77417;SDS011;66490;51.484;0.026;2023-03-14T02:09:06;3.17;;;1.30;;
77417;SDS011;66490;51.484;0.026;2023-03-14T02:11:50;3.95;;;1.25;;
77417;SDS011;66490;51.484;0.026;2023-03-14T02:14:35;3.40;;;1.13;;
77417;SDS011;66490;51.484;0.026;2023-03-14T02:17:21;6.43;;;1.50;;
77417;SDS011;66490;51.484;0.026;2023-03-14T02:22:53;3.22;;;1.83;;
77417;SDS011;66490;51.484;0.026;2023-03-14T02:25:43;4.53;;;1.27;;
77417;SDS011;66490;51.484;0.026;2023-03-14T02:28:29;4.80;;;1.77;;
77417;SDS011;66490;51.484;0.026;2023-03-14T02:31:13;3.43;;;1.87;;
77417;SDS011;66490;51.484;0.026;2023-03-14T02:33:58;3.50;;;1.30;;
77417;SDS011;66490;51.484;0.026;2023-03-14T02:36:43;3.90;;;1.80;;
77417;SDS011;66490;51.484;0.026;2023-03-14T02:39:29;3.42;;;1.65;;
77417;SDS011;66490;51.484;0.026;2023-03-14T02:42:16;4.13;;;1.45;;
77417;SDS011;66490;51.484;0.026;2023-03-14T02:47:54;5.97;;;1.38;;
77417;SDS011;66490;51.484;0.026;2023-03-14T02:50:40;5.85;;;2.08;;
77417;SDS011;66490;51.484;0.026;2023-03-14T02:53:25;4.82;;;1.75;;
77417;SDS011;66490;51.484;0.026;2023-03-14T02:56:10;4.88;;;1.67;;
77417;SDS011;66490;51.484;0.026;2023-03-14T02:58:54;4.67;;;1.40;;
77417;SDS011;66490;51.484;0.026;2023-03-14T03:01:38;4.63;;;1.20;;
77417;SDS011;66490;51.484;0.026;2023-03-14T03:04:22;4.57;;;0.68;;
77417;SDS011;66490;51.484;0.026;2023-03-14T03:07:06;3.22;;;1.52;;
77417;SDS011;66490;51.484;0.026;2023-03-14T03:09:50;3.67;;;1.10;;
77417;SDS011;66490;51.484;0.026;2023-03-14T03:12:34;3.20;;;1.30;;
77417;SDS011;66490;51.484;0.026;2023-03-14T03:15:18;2.22;;;0.90;;
77417;SDS011;66490;51.484;0.026;2023-03-14T03:18:03;3.90;;;0.88;;
77417;SDS011;66490;51.484;0.026;2023-03-14T03:20:47;3.72;;;1.10;;
77417;SDS011;66490;51.484;0.026;2023-03-14T03:23:31;2.65;;;1.70;;
77417;SDS011;66490;51.484;0.026;2023-03-14T03:26:15;5.13;;;1.00;;
77417;SDS011;66490;51.484;0.026;2023-03-14T03:28:59;4.97;;;1.00;;
77417;SDS011;66490;51.484;0.026;2023-03-14T03:31:43;8.68;;;2.00;;
77417;SDS011;66490;51.484;0.026;2023-03-14T03:34:29;2.58;;;1.02;;
77417;SDS011;66490;51.484;0.026;2023-03-14T03:37:13;3.35;;;1.17;;
77417;SDS011;66490;51.484;0.026;2023-03-14T03:39:57;2.70;;;0.80;;
77417;SDS011;66490;51.484;0.026;2023-03-14T03:42:41;2.78;;;0.60;;
77417;SDS011;66490;51.484;0.026;2023-03-14T03:45:24;4.78;;;0.70;;
77417;SDS011;66490;51.484;0.026;2023-03-14T03:48:09;1.80;;;0.50;;
77417;SDS011;66490;51.484;0.026;2023-03-14T03:50:54;6.03;;;1.20;;
77417;SDS011;66490;51.484;0.026;2023-03-14T03:53:38;2.93;;;0.63;;
77417;SDS011;66490;51.484;0.026;2023-03-14T03:56:22;3.83;;;0.73;;
77417;SDS011;66490;51.484;0.026;2023-03-14T03:59:06;3.13;;;1.00;;
77417;SDS011;66490;51.484;0.026;2023-03-14T04:01:50;2.25;;;0.60;;
77417;SDS011;66490;51.484;0.026;2023-03-14T04:04:33;3.20;;;1.00;;
77417;SDS011;66490;51.484;0.026;2023-03-14T04:07:17;4.00;;;1.07;;
77417;SDS011;66490;51.484;0.026;2023-03-14T04:10:02;3.17;;;0.88;;
77417;SDS011;66490;51.484;0.026;2023-03-14T04:12:47;3.78;;;0.60;;
77417;SDS011;66490;51.484;0.026;2023-03-14T04:15:31;2.75;;;0.70;;
77417;SDS011;66490;51.484;0.026;2023-03-14T04:18:15;3.70;;;1.17;;
77417;SDS011;66490;51.484;0.026;2023-03-14T04:20:59;3.13;;;0.90;;
77417;SDS011;66490;51.484;0.026;2023-03-14T04:23:43;6.88;;;0.95;;
77417;SDS011;66490;51.484;0.026;2023-03-14T04:26:27;5.57;;;1.30;;
77417;SDS011;66490;51.484;0.026;2023-03-14T04:29:11;5.22;;;1.10;;
77417;SDS011;66490;51.484;0.026;2023-03-14T04:31:55;4.32;;;1.05;;
77417;SDS011;66490;51.484;0.026;2023-03-14T04:34:40;6.20;;;1.23;;
77417;SDS011;66490;51.484;0.026;2023-03-14T04:37:24;4.85;;;0.80;;
77417;SDS011;66490;51.484;0.026;2023-03-14T04:40:09;3.97;;;0.82;;
77417;SDS011;66490;51.484;0.026;2023-03-14T04:42:53;5.85;;;1.48;;
77417;SDS011;66490;51.484;0.026;2023-03-14T04:45:37;6.75;;;1.17;;
77417;SDS011;66490;51.484;0.026;2023-03-14T04:48:24;6.10;;;1.60;;
77417;SDS011;66490;51.484;0.026;2023-03-14T04:51:08;6.07;;;0.93;;
77417;SDS011;66490;51.484;0.026;2023-03-14T04:53:52;4.57;;;1.00;;
77417;SDS011;66490;51.484;0.026;2023-03-14T04:56:37;5.68;;;1.55;;
77417;SDS011;66490;51.484;0.026;2023-03-14T04:59:24;9.88;;;1.67;;
77417;SDS011;66490;51.484;0.026;2023-03-14T05:02:08;6.97;;;1.00;;
77417;SDS011;66490;51.484;0.026;2023-03-14T05:04:52;3.67;;;0.88;;
77417;SDS011;66490;51.484;0.026;2023-03-14T05:07:36;8.15;;;1.42;;
77417;SDS011;66490;51.484;0.026;2023-03-14T05:10:20;10.00;;;1.83;;
77417;SDS011;66490;51.484;0.026;2023-03-14T05:13:04;6.40;;;1.27;;
77417;SDS011;66490;51.484;0.026;2023-03-14T05:15:48;5.07;;;1.37;;
77417;SDS011;66490;51.484;0.026;2023-03-14T05:18:33;4.85;;;1.30;;
77417;SDS011;66490;51.484;0.026;2023-03-14T05:21:17;8.35;;;0.85;;
77417;SDS011;66490;51.484;0.026;2023-03-14T05:24:02;7.47;;;0.88;;
77417;SDS011;66490;51.484;0.026;2023-03-14T05:26:46;2.97;;;0.80;;
77417;SDS011;66490;51.484;0.026;2023-03-14T05:29:30;8.80;;;1.13;;
77417;SDS011;66490;51.484;0.026;2023-03-14T05:32:14;8.73;;;1.33;;
77417;SDS011;66490;51.484;0.026;2023-03-14T05:34:58;6.30;;;1.65;;
77417;SDS011;66490;51.484;0.026;2023-03-14T05:37:43;9.05;;;0.90;;
77417;SDS011;66490;51.484;0.026;2023-03-14T05:40:27;6.40;;;1.58;;
77417;SDS011;66490;51.484;0.026;2023-03-14T05:43:12;5.17;;;1.00;;
77417;SDS011;66490;51.484;0.026;2023-03-14T05:45:57;7.75;;;1.80;;
77417;SDS011;66490;51.484;0.026;2023-03-14T05:48:42;8.35;;;1.80;;
77417;SDS011;66490;51.484;0.026;2023-03-14T05:51:27;8.43;;;1.60;;
77417;SDS011;66490;51.484;0.026;2023-03-14T05:54:11;6.53;;;1.30;;
77417;SDS011;66490;51.484;0.026;2023-03-14T05:56:55;7.43;;;1.53;;
77417;SDS011;66490;51.484;0.026;2023-03-14T05:59:39;4.78;;;1.38;;
77417;SDS011;66490;51.484;0.026;2023-03-14T06:02:23;9.57;;;1.88;;
77417;SDS011;66490;51.484;0.026;2023-03-14T06:05:08;7.22;;;1.48;;
77417;SDS011;66490;51.484;0.026;2023-03-14T06:07:52;5.93;;;1.20;;
77417;SDS011;66490;51.484;0.026;2023-03-14T06:10:36;5.93;;;0.67;;
77417;SDS011;66490;51.484;0.026;2023-03-14T06:13:21;4.72;;;0.90;;
77417;SDS011;66490;51.484;0.026;2023-03-14T06:16:05;5.95;;;1.15;;
77417;SDS011;66490;51.484;0.026;2023-03-14T06:18:50;4.55;;;1.10;;
77417;SDS011;66490;51.484;0.026;2023-03-14T06:21:35;5.90;;;1.20;;
77417;SDS011;66490;51.484;0.026;2023-03-14T06:24:19;6.53;;;1.60;;
77417;SDS011;66490;51.484;0.026;2023-03-14T06:27:04;6.60;;;0.85;;
77417;SDS011;66490;51.484;0.026;2023-03-14T06:29:48;6.97;;;2.35;;
77417;SDS011;66490;51.484;0.026;2023-03-14T06:32:32;10.43;;;1.58;;
77417;SDS011;66490;51.484;0.026;2023-03-14T06:35:16;5.88;;;0.60;;
77417;SDS011;66490;51.484;0.026;2023-03-14T06:38:00;6.73;;;0.77;;
77417;SDS011;66490;51.484;0.026;2023-03-14T06:40:44;6.47;;;0.60;;
77417;SDS011;66490;51.484;0.026;2023-03-14T06:43:28;7.18;;;1.20;;
77417;SDS011;66490;51.484;0.026;2023-03-14T06:46:14;6.10;;;1.50;;
77417;SDS011;66490;51.484;0.026;2023-03-14T06:48:59;6.25;;;1.10;;
77417;SDS011;66490;51.484;0.026;2023-03-14T06:51:43;5.33;;;1.03;;
77417;SDS011;66490;51.484;0.026;2023-03-14T06:54:27;7.07;;;1.63;;
77417;SDS011;66490;51.484;0.026;2023-03-14T06:57:11;8.95;;;0.90;;
77417;SDS011;66490;51.484;0.026;2023-03-14T06:59:55;7.50;;;1.25;;
77417;SDS011;66490;51.484;0.026;2023-03-14T07:02:39;6.18;;;2.13;;
77417;SDS011;66490;51.484;0.026;2023-03-14T07:05:23;6.83;;;1.07;;
77417;SDS011;66490;51.484;0.026;2023-03-14T07:08:07;11.45;;;1.50;;
77417;SDS011;66490;51.484;0.026;2023-03-14T07:10:52;4.45;;;0.70;;
77417;SDS011;66490;51.484;0.026;2023-03-14T07:13:36;8.10;;;1.13;;
77417;SDS011;66490;51.484;0.026;2023-03-14T07:16:20;6.97;;;1.45;;
77417;SDS011;66490;51.484;0.026;2023-03-14T07:19:04;8.97;;;1.60;;
77417;SDS011;66490;51.484;0.026;2023-03-14T07:21:48;5.28;;;1.35;;
77417;SDS011;66490;51.484;0.026;2023-03-14T07:24:32;7.22;;;1.70;;
77417;SDS011;66490;51.484;0.026;2023-03-14T07:27:16;7.03;;;1.15;;
77417;SDS011;66490;51.484;0.026;2023-03-14T07:30:00;6.90;;;1.65;;
77417;SDS011;66490;51.484;0.026;2023-03-14T07:32:44;7.63;;;1.97;;
77417;SDS011;66490;51.484;0.026;2023-03-14T07:35:28;11.02;;;1.65;;
77417;SDS011;66490;51.484;0.026;2023-03-14T07:38:12;4.43;;;1.23;;
77417;SDS011;66490;51.484;0.026;2023-03-14T07:40:59;8.10;;;1.40;;
77417;SDS011;66490;51.484;0.026;2023-03-14T07:43:44;5.00;;;1.23;;
77417;SDS011;66490;51.484;0.026;2023-03-14T07:46:28;6.67;;;1.50;;
77417;SDS011;66490;51.484;0.026;2023-03-14T07:49:12;4.20;;;1.38;;
77417;SDS011;66490;51.484;0.026;2023-03-14T07:51:56;6.28;;;1.33;;
77417;SDS011;66490;51.484;0.026;2023-03-14T07:54:40;4.18;;;1.30;;
77417;SDS011;66490;51.484;0.026;2023-03-14T07:57:24;3.78;;;1.48;;
77417;SDS011;66490;51.484;0.026;2023-03-14T08:00:08;5.67;;;1.50;;
77417;SDS011;66490;51.484;0.026;2023-03-14T08:02:52;5.22;;;0.93;;
77417;SDS011;66490;51.484;0.026;2023-03-14T08:05:36;7.75;;;1.63;;
77417;SDS011;66490;51.484;0.026;2023-03-14T08:08:20;5.40;;;1.25;;
77417;SDS011;66490;51.484;0.026;2023-03-14T08:11:04;2.50;;;1.10;;
77417;SDS011;66490;51.484;0.026;2023-03-14T08:13:49;4.73;;;1.40;;
77417;SDS011;66490;51.484;0.026;2023-03-14T08:16:34;4.95;;;1.50;;
77417;SDS011;66490;51.484;0.026;2023-03-14T08:19:18;4.38;;;1.15;;
77417;SDS011;66490;51.484;0.026;2023-03-14T08:22:02;8.10;;;1.20;;
77417;SDS011;66490;51.484;0.026;2023-03-14T08:24:49;3.72;;;1.70;;
77417;SDS011;66490;51.484;0.026;2023-03-14T08:27:33;3.23;;;1.50;;
77417;SDS011;66490;51.484;0.026;2023-03-14T08:30:17;5.32;;;1.52;;
77417;SDS011;66490;51.484;0.026;2023-03-14T08:33:02;6.35;;;1.30;;
77417;SDS011;66490;51.484;0.026;2023-03-14T08:35:46;3.17;;;0.95;;
77417;SDS011;66490;51.484;0.026;2023-03-14T08:38:30;1.98;;;1.30;;
77417;SDS011;66490;51.484;0.026;2023-03-14T08:41:14;3.80;;;1.37;;
77417;SDS011;66490;51.484;0.026;2023-03-14T08:43:57;2.63;;;0.98;;
77417;SDS011;66490;51.484;0.026;2023-03-14T08:46:41;2.13;;;1.50;;
77417;SDS011;66490;51.484;0.026;2023-03-14T08:49:26;3.10;;;1.05;;
77417;SDS011;66490;51.484;0.026;2023-03-14T08:52:10;2.47;;;1.25;;
77417;SDS011;66490;51.484;0.026;2023-03-14T08:54:54;2.17;;;0.90;;
77417;SDS011;66490;51.484;0.026;2023-03-14T08:57:38;2.28;;;0.73;;
77417;SDS011;66490;51.484;0.026;2023-03-14T09:00:22;3.13;;;0.70;;
77417;SDS011;66490;51.484;0.026;2023-03-14T09:03:09;1.27;;;0.55;;
77417;SDS011;66490;51.484;0.026;2023-03-14T09:05:53;1.35;;;0.90;;
77417;SDS011;66490;51.484;0.026;2023-03-14T09:08:37;2.27;;;0.70;;
77417;SDS011;66490;51.484;0.026;2023-03-14T09:11:21;1.75;;;0.88;;
77417;SDS011;66490;51.484;0.026;2023-03-14T09:14:05;2.88;;;1.58;;
77417;SDS011;66490;51.484;0.026;2023-03-14T09:16:49;3.42;;;1.08;;
77417;SDS011;66490;51.484;0.026;2023-03-14T09:19:34;2.88;;;1.08;;
77417;SDS011;66490;51.484;0.026;2023-03-14T09:22:18;3.30;;;0.90;;
77417;SDS011;66490;51.484;0.026;2023-03-14T09:25:05;5.85;;;1.10;;
77417;SDS011;66490;51.484;0.026;2023-03-14T09:27:49;2.90;;;1.33;;
77417;SDS011;66490;51.484;0.026;2023-03-14T09:30:33;6.70;;;1.60;;
77417;SDS011;66490;51.484;0.026;2023-03-14T09:33:17;3.95;;;1.15;;
77417;SDS011;66490;51.484;0.026;2023-03-14T09:36:01;4.80;;;1.47;;
77417;SDS011;66490;51.484;0.026;2023-03-14T09:38:45;3.30;;;1.63;;
77417;SDS011;66490;51.484;0.026;2023-03-14T09:41:31;4.65;;;1.83;;
77417;SDS011;66490;51.484;0.026;2023-03-14T09:44:19;6.43;;;1.50;;
77417;SDS011;66490;51.484;0.026;2023-03-14T09:47:05;6.03;;;2.00;;
77417;SDS011;66490;51.484;0.026;2023-03-14T09:49:50;7.23;;;2.27;;
77417;SDS011;66490;51.484;0.026;2023-03-14T09:52:35;7.45;;;2.03;;
77417;SDS011;66490;51.484;0.026;2023-03-14T09:55:21;8.75;;;2.63;;
77417;SDS011;66490;51.484;0.026;2023-03-14T09:58:10;8.85;;;2.33;;
77417;SDS011;66490;51.484;0.026;2023-03-14T10:00:55;7.35;;;2.03;;
77417;SDS011;66490;51.484;0.026;2023-03-14T10:03:40;9.57;;;2.67;;
77417;SDS011;66490;51.484;0.026;2023-03-14T10:06:26;9.02;;;2.33;;
77417;SDS011;66490;51.484;0.026;2023-03-14T10:09:12;7.25;;;2.17;;
77417;SDS011;66490;51.484;0.026;2023-03-14T10:12:01;8.82;;;2.35;;
77417;SDS011;66490;51.484;0.026;2023-03-14T10:14:49;11.48;;;2.20;;
77417;SDS011;66490;51.484;0.026;2023-03-14T10:17:40;12.97;;;2.67;;
77417;SDS011;66490;51.484;0.026;2023-03-14T10:26:04;9.30;;;2.72;;
77417;SDS011;66490;51.484;0.026;2023-03-14T10:28:53;11.45;;;2.42;;
77417;SDS011;66490;51.484;0.026;2023-03-14T10:34:31;6.13;;;1.85;;
77417;SDS011;66490;51.484;0.026;2023-03-14T10:37:23;8.80;;;2.30;;
77417;SDS011;66490;51.484;0.026;2023-03-14T10:40:12;10.18;;;1.95;;
77417;SDS011;66490;51.484;0.026;2023-03-14T10:43:00;8.63;;;1.95;;
77417;SDS011;66490;51.484;0.026;2023-03-14T10:46:06;7.67;;;1.77;;
77417;SDS011;66490;51.484;0.026;2023-03-14T10:48:53;4.65;;;1.40;;
77417;SDS011;66490;51.484;0.026;2023-03-14T10:51:37;5.35;;;1.90;;
77417;SDS011;66490;51.484;0.026;2023-03-14T10:54:21;6.35;;;1.70;;
77417;SDS011;66490;51.484;0.026;2023-03-14T10:57:07;7.07;;;1.92;;
77417;SDS011;66490;51.484;0.026;2023-03-14T10:59:51;7.83;;;1.70;;
77417;SDS011;66490;51.484;0.026;2023-03-14T11:02:58;10.00;;;2.22;;
77417;SDS011;66490;51.484;0.026;2023-03-14T11:05:49;7.75;;;1.83;;
77417;SDS011;66490;51.484;0.026;2023-03-14T11:11:25;15.90;;;2.08;;
77417;SDS011;66490;51.484;0.026;2023-03-14T11:14:16;4.77;;;1.60;;
77417;SDS011;66490;51.484;0.026;2023-03-14T11:17:17;5.28;;;2.08;;
77417;SDS011;66490;51.484;0.026;2023-03-14T11:28:36;8.80;;;1.23;;
77417;SDS011;66490;51.484;0.026;2023-03-14T11:31:24;12.35;;;1.20;;
77417;SDS011;66490;51.484;0.026;2023-03-14T11:37:00;9.23;;;1.88;;
77417;SDS011;66490;51.484;0.026;2023-03-14T11:39:47;8.80;;;1.20;;
77417;SDS011;66490;51.484;0.026;2023-03-14T11:42:33;9.10;;;1.33;;
77417;SDS011;66490;51.484;0.026;2023-03-14T11:45:18;6.30;;;1.00;;
77417;SDS011;66490;51.484;0.026;2023-03-14T11:48:10;7.90;;;1.27;;
77417;SDS011;66490;51.484;0.026;2023-03-14T11:50:57;10.13;;;2.35;;
77417;SDS011;66490;51.484;0.026;2023-03-14T11:54:01;11.57;;;2.22;;
77417;SDS011;66490;51.484;0.026;2023-03-14T12:08:19;8.40;;;1.90;;
77417;SDS011;66490;51.484;0.026;2023-03-14T12:13:49;7.75;;;1.42;;
77417;SDS011;66490;51.484;0.026;2023-03-14T12:16:38;7.55;;;2.10;;
77417;SDS011;66490;51.484;0.026;2023-03-14T12:30:40;8.07;;;1.40;;
77417;SDS011;66490;51.484;0.026;2023-03-14T12:33:29;11.63;;;1.17;;
77417;SDS011;66490;51.484;0.026;2023-03-14T12:36:21;8.95;;;1.52;;
77417;SDS011;66490;51.484;0.026;2023-03-14T12:42:38;8.43;;;1.42;;
77417;SDS011;66490;51.484;0.026;2023-03-14T12:48:23;5.82;;;1.48;;
77417;SDS011;66490;51.484;0.026;2023-03-14T12:51:14;6.95;;;1.50;;
77417;SDS011;66490;51.484;0.026;2023-03-14T12:57:14;7.53;;;1.45;;
77417;SDS011;66490;51.484;0.026;2023-03-14T13:00:13;5.18;;;0.85;;
77417;SDS011;66490;51.484;0.026;2023-03-14T13:03:13;6.32;;;1.00;;
77417;SDS011;66490;51.484;0.026;2023-03-14T13:06:02;8.40;;;1.55;;
77417;SDS011;66490;51.484;0.026;2023-03-14T13:08:48;7.17;;;1.50;;
77417;SDS011;66490;51.484;0.026;2023-03-14T13:11:32;6.47;;;1.10;;
77417;SDS011;66490;51.484;0.026;2023-03-14T13:14:17;7.53;;;1.30;;
77417;SDS011;66490;51.484;0.026;2023-03-14T13:17:02;10.02;;;1.50;;
77417;SDS011;66490;51.484;0.026;2023-03-14T13:19:48;6.50;;;1.10;;
77417;SDS011;66490;51.484;0.026;2023-03-14T13:22:34;5.40;;;1.30;;
77417;SDS011;66490;51.484;0.026;2023-03-14T13:25:20;5.60;;;1.30;;
77417;SDS011;66490;51.484;0.026;2023-03-14T13:28:08;6.63;;;0.90;;
77417;SDS011;66490;51.484;0.026;2023-03-14T13:31:00;5.80;;;1.33;;
77417;SDS011;66490;51.484;0.026;2023-03-14T13:33:44;5.50;;;1.73;;
77417;SDS011;66490;51.484;0.026;2023-03-14T13:36:28;8.07;;;1.10;;
77417;SDS011;66490;51.484;0.026;2023-03-14T13:39:14;8.60;;;1.25;;
77417;SDS011;66490;51.484;0.026;2023-03-14T13:42:00;4.57;;;0.55;;
77417;SDS011;66490;51.484;0.026;2023-03-14T13:44:44;4.32;;;1.17;;
77417;SDS011;66490;51.484;0.026;2023-03-14T13:47:29;6.53;;;1.25;;
77417;SDS011;66490;51.484;0.026;2023-03-14T13:50:16;6.57;;;1.40;;
77417;SDS011;66490;51.484;0.026;2023-03-14T13:53:01;6.47;;;1.20;;
77417;SDS011;66490;51.484;0.026;2023-03-14T13:55:45;7.28;;;1.35;;
77417;SDS011;66490;51.484;0.026;2023-03-14T13:58:30;7.20;;;1.30;;
77417;SDS011;66490;51.484;0.026;2023-03-14T14:04:32;5.70;;;1.50;;
77417;SDS011;66490;51.484;0.026;2023-03-14T14:07:17;4.63;;;1.10;;
77417;SDS011;66490;51.484;0.026;2023-03-14T14:10:04;6.90;;;1.80;;
77417;SDS011;66490;51.484;0.026;2023-03-14T14:12:56;6.10;;;1.23;;
77417;SDS011;66490;51.484;0.026;2023-03-14T14:15:43;7.25;;;1.52;;
77417;SDS011;66490;51.484;0.026;2023-03-14T14:18:27;6.00;;;1.40;;
77417;SDS011;66490;51.484;0.026;2023-03-14T14:21:12;4.72;;;1.02;;
77417;SDS011;66490;51.484;0.026;2023-03-14T14:23:57;4.28;;;0.75;;
77417;SDS011;66490;51.484;0.026;2023-03-14T14:26:46;6.57;;;1.50;;
77417;SDS011;66490;51.484;0.026;2023-03-14T14:29:31;3.90;;;1.13;;
77417;SDS011;66490;51.484;0.026;2023-03-14T14:32:16;6.13;;;1.30;;
77417;SDS011;66490;51.484;0.026;2023-03-14T14:35:00;5.50;;;0.88;;
77417;SDS011;66490;51.484;0.026;2023-03-14T14:37:44;6.43;;;1.00;;
77417;SDS011;66490;51.484;0.026;2023-03-14T14:40:28;3.83;;;0.70;;
77417;SDS011;66490;51.484;0.026;2023-03-14T14:43:15;4.63;;;0.98;;
77417;SDS011;66490;51.484;0.026;2023-03-14T14:46:00;4.07;;;0.80;;
77417;SDS011;66490;51.484;0.026;2023-03-14T14:48:44;6.32;;;0.90;;
77417;SDS011;66490;51.484;0.026;2023-03-14T14:51:34;5.40;;;1.00;;
77417;SDS011;66490;51.484;0.026;2023-03-14T14:54:33;7.57;;;1.15;;
77417;SDS011;66490;51.484;0.026;2023-03-14T14:57:18;3.72;;;1.00;;
77417;SDS011;66490;51.484;0.026;2023-03-14T15:00:04;4.50;;;1.27;;
77417;SDS011;66490;51.484;0.026;2023-03-14T15:02:58;8.02;;;1.67;;
77417;SDS011;66490;51.484;0.026;2023-03-14T15:05:43;6.78;;;0.90;;
77417;SDS011;66490;51.484;0.026;2023-03-14T15:08:27;5.28;;;1.27;;
77417;SDS011;66490;51.484;0.026;2023-03-14T15:11:15;4.93;;;1.50;;
77417;SDS011;66490;51.484;0.026;2023-03-14T15:13:59;4.97;;;1.10;;
77417;SDS011;66490;51.484;0.026;2023-03-14T15:16:43;7.70;;;1.23;;
77417;SDS011;66490;51.484;0.026;2023-03-14T15:19:27;5.03;;;0.98;;
77417;SDS011;66490;51.484;0.026;2023-03-14T15:22:14;4.72;;;1.30;;
77417;SDS011;66490;51.484;0.026;2023-03-14T15:24:58;7.28;;;1.35;;
77417;SDS011;66490;51.484;0.026;2023-03-14T15:27:42;6.90;;;1.73;;
77417;SDS011;66490;51.484;0.026;2023-03-14T15:30:26;6.82;;;1.65;;
77417;SDS011;66490;51.484;0.026;2023-03-14T15:33:10;5.20;;;0.90;;
77417;SDS011;66490;51.484;0.026;2023-03-14T15:35:55;6.35;;;1.60;;
77417;SDS011;66490;51.484;0.026;2023-03-14T15:38:40;4.07;;;1.00;;
77417;SDS011;66490;51.484;0.026;2023-03-14T15:41:24;4.33;;;1.10;;
77417;SDS011;66490;51.484;0.026;2023-03-14T15:44:09;7.30;;;1.77;;
77417;SDS011;66490;51.484;0.026;2023-03-14T15:46:53;7.75;;;1.40;;
77417;SDS011;66490;51.484;0.026;2023-03-14T15:49:37;4.28;;;1.58;;
77417;SDS011;66490;51.484;0.026;2023-03-14T15:52:21;4.68;;;1.60;;
77417;SDS011;66490;51.484;0.026;2023-03-14T15:55:05;3.37;;;0.90;;
77417;SDS011;66490;51.484;0.026;2023-03-14T15:57:49;4.32;;;1.23;;
77417;SDS011;66490;51.484;0.026;2023-03-14T16:00:33;3.95;;;1.67;;
77417;SDS011;66490;51.484;0.026;2023-03-14T16:03:21;4.15;;;1.10;;
77417;SDS011;66490;51.484;0.026;2023-03-14T16:06:05;5.47;;;1.58;;
77417;SDS011;66490;51.484;0.026;2023-03-14T16:08:48;5.47;;;1.27;;
77417;SDS011;66490;51.484;0.026;2023-03-14T16:11:32;12.20;;;2.95;;
77417;SDS011;66490;51.484;0.026;2023-03-14T16:14:16;7.18;;;1.15;;
77417;SDS011;66490;51.484;0.026;2023-03-14T16:17:00;5.00;;;1.27;;
77417;SDS011;66490;51.484;0.026;2023-03-14T16:19:44;3.70;;;1.30;;
77417;SDS011;66490;51.484;0.026;2023-03-14T16:22:28;4.47;;;1.60;;
77417;SDS011;66490;51.484;0.026;2023-03-14T16:25:17;6.07;;;1.58;;
77417;SDS011;66490;51.484;0.026;2023-03-14T16:28:04;5.35;;;1.70;;
77417;SDS011;66490;51.484;0.026;2023-03-14T16:30:48;6.93;;;1.60;;
77417;SDS011;66490;51.484;0.026;2023-03-14T16:33:32;5.38;;;1.52;;
77417;SDS011;66490;51.484;0.026;2023-03-14T16:36:17;5.73;;;1.00;;
77417;SDS011;66490;51.484;0.026;2023-03-14T16:39:01;5.57;;;1.33;;
77417;SDS011;66490;51.484;0.026;2023-03-14T16:41:45;6.50;;;1.40;;
77417;SDS011;66490;51.484;0.026;2023-03-14T16:44:35;4.18;;;0.68;;
77417;SDS011;66490;51.484;0.026;2023-03-14T16:47:19;4.88;;;1.13;;
77417;SDS011;66490;51.484;0.026;2023-03-14T16:50:03;4.00;;;1.00;;
77417;SDS011;66490;51.484;0.026;2023-03-14T16:52:47;9.45;;;1.10;;
77417;SDS011;66490;51.484;0.026;2023-03-14T16:55:32;4.03;;;1.25;;
77417;SDS011;66490;51.484;0.026;2023-03-14T16:58:16;4.00;;;1.15;;
77417;SDS011;66490;51.484;0.026;2023-03-14T17:01:03;4.93;;;1.38;;
77417;SDS011;66490;51.484;0.026;2023-03-14T17:03:52;6.07;;;1.40;;
77417;SDS011;66490;51.484;0.026;2023-03-14T17:06:36;6.28;;;1.33;;
77417;SDS011;66490;51.484;0.026;2023-03-14T17:09:21;5.45;;;1.27;;
77417;SDS011;66490;51.484;0.026;2023-03-14T17:12:05;5.18;;;0.82;;
77417;SDS011;66490;51.484;0.026;2023-03-14T17:14:50;5.30;;;1.58;;
77417;SDS011;66490;51.484;0.026;2023-03-14T17:17:34;8.50;;;1.10;;
77417;SDS011;66490;51.484;0.026;2023-03-14T17:20:18;5.97;;;1.63;;
77417;SDS011;66490;51.484;0.026;2023-03-14T17:23:02;6.25;;;1.30;;
77417;SDS011;66490;51.484;0.026;2023-03-14T17:25:46;3.47;;;1.20;;
77417;SDS011;66490;51.484;0.026;2023-03-14T17:28:30;4.35;;;1.10;;